createdAt,value
2023-03-07T00:00:46.215Z,23.65
2023-03-07T00:03:14.665Z,24.58
2023-03-07T00:05:42.245Z,24.50
2023-03-07T00:08:09.694Z,24.88
2023-03-07T00:10:36.740Z,24.05
2023-03-07T00:13:04.191Z,25.60
2023-03-07T00:15:31.294Z,24.77
2023-03-07T00:17:58.559Z,23.90
2023-03-07T00:20:25.295Z,24.38
2023-03-07T00:22:52.051Z,24.83
2023-03-07T00:25:18.964Z,23.77
2023-03-07T00:30:13.917Z,21.80
2023-03-07T00:32:40.891Z,22.48
2023-03-07T00:37:34.468Z,21.35
2023-03-07T00:40:01.237Z,22.25
2023-03-07T00:42:27.995Z,23.50
2023-03-07T00:44:54.723Z,21.13
2023-03-07T00:47:21.800Z,23.52
2023-03-07T00:49:48.568Z,20.98
2023-03-07T00:52:15.379Z,21.17
2023-03-07T00:54:42.088Z,22.50
2023-03-07T00:57:08.868Z,23.10
2023-03-07T00:59:35.681Z,23.25
2023-03-07T01:02:02.409Z,22.77
2023-03-07T01:04:29.156Z,23.05
2023-03-07T01:06:55.870Z,21.05
2023-03-07T01:09:23.761Z,23.27
2023-03-07T01:11:50.533Z,22.17
2023-03-07T01:14:17.317Z,22.73
2023-03-07T01:16:44.213Z,22.27
2023-03-07T01:21:41.268Z,22.05
2023-03-07T01:24:12.019Z,21.45
2023-03-07T01:26:38.826Z,22.17
2023-03-07T01:29:08.379Z,21.40
2023-03-07T01:31:35.520Z,22.38
2023-03-07T01:34:03.956Z,22.30
2023-03-07T01:36:33.348Z,20.38
2023-03-07T01:39:12.645Z,22.15
2023-03-07T01:41:39.963Z,23.02
2023-03-07T01:44:19.643Z,21.73
2023-03-07T01:49:22.210Z,22.13
2023-03-07T01:51:54.521Z,22.10
2023-03-07T01:54:23.289Z,21.95
2023-03-07T01:56:50.493Z,21.65
2023-03-07T01:59:25.014Z,23.25
2023-03-07T02:01:52.229Z,22.58
2023-03-07T02:04:26.623Z,20.77
2023-03-07T02:06:53.423Z,20.58
2023-03-07T02:09:22.915Z,22.45
2023-03-07T02:11:50.189Z,21.88
2023-03-07T02:14:17.067Z,22.33
2023-03-07T02:16:43.953Z,22.10
2023-03-07T02:19:38.637Z,22.02
2023-03-07T02:22:12.569Z,21.83
2023-03-07T02:24:57.107Z,21.27
2023-03-07T02:27:30.881Z,21.52
2023-03-07T02:29:57.693Z,21.80
2023-03-07T02:32:24.501Z,22.80
2023-03-07T02:34:51.386Z,21.38
2023-03-07T02:37:32.125Z,21.85
2023-03-07T02:40:05.261Z,22.10
2023-03-07T02:42:35.711Z,22.65
2023-03-07T02:45:05.769Z,21.17
2023-03-07T02:47:32.561Z,22.58
2023-03-07T02:49:59.303Z,22.67
2023-03-07T02:52:27.960Z,22.85
2023-03-07T02:54:55.450Z,22.73
2023-03-07T02:57:22.209Z,23.00
2023-03-07T02:59:48.960Z,22.80
2023-03-07T03:02:16.137Z,24.13
2023-03-07T03:04:42.875Z,23.13
2023-03-07T03:07:09.818Z,23.17
2023-03-07T03:12:03.530Z,23.50
2023-03-07T03:16:57.050Z,22.80
2023-03-07T03:19:23.922Z,22.25
2023-03-07T03:21:50.674Z,23.75
2023-03-07T03:24:17.479Z,24.35
2023-03-07T03:26:44.258Z,23.65
2023-03-07T03:29:11.232Z,23.38
2023-03-07T03:34:05.690Z,23.50
2023-03-07T03:36:32.805Z,25.20
2023-03-07T03:39:00.407Z,24.50
2023-03-07T03:41:27.560Z,25.15
2023-03-07T03:43:54.465Z,25.20
2023-03-07T03:46:21.681Z,23.80
2023-03-07T03:48:55.509Z,24.83
2023-03-07T03:51:23.510Z,24.55
2023-03-07T03:53:51.058Z,24.63
2023-03-07T03:56:20.497Z,24.38
2023-03-07T03:58:49.465Z,25.85
2023-03-07T04:01:16.382Z,25.05
2023-03-07T04:03:45.905Z,23.13
2023-03-07T04:06:18.609Z,25.33
2023-03-07T04:08:46.692Z,25.02
2023-03-07T04:11:14.270Z,25.70
2023-03-07T04:13:41.396Z,25.80
2023-03-07T04:16:08.835Z,24.90
2023-03-07T04:18:36.253Z,25.58
2023-03-07T04:21:04.327Z,24.67
2023-03-07T04:23:31.082Z,25.13
2023-03-07T04:26:00.006Z,26.33
2023-03-07T04:28:29.684Z,25.15
2023-03-07T04:30:56.516Z,25.60
2023-03-07T04:33:23.351Z,23.50
2023-03-07T04:35:50.162Z,25.63
2023-03-07T04:38:17.064Z,25.88
2023-03-07T04:40:43.866Z,25.63
2023-03-07T04:43:10.570Z,26.75
2023-03-07T04:45:37.447Z,27.40
2023-03-07T04:50:31.380Z,27.95
2023-03-07T04:52:58.122Z,26.48
2023-03-07T04:55:24.998Z,27.10
2023-03-07T04:57:52.045Z,26.48
2023-03-07T05:00:20.133Z,28.17
2023-03-07T05:02:48.602Z,28.30
2023-03-07T05:05:16.601Z,28.38
2023-03-07T05:07:44.205Z,29.10
2023-03-07T05:10:11.871Z,29.50
2023-03-07T05:12:38.606Z,28.90
2023-03-07T05:15:06.821Z,30.10
2023-03-07T05:17:33.604Z,28.98
2023-03-07T05:20:00.343Z,28.23
2023-03-07T05:22:27.216Z,28.92
2023-03-07T05:24:53.997Z,29.48
2023-03-07T05:27:20.844Z,28.45
2023-03-07T05:29:47.658Z,29.42
2023-03-07T05:32:15.443Z,28.50
2023-03-07T05:34:42.313Z,28.48
2023-03-07T05:37:09.369Z,28.90
2023-03-07T05:39:36.142Z,30.45
2023-03-07T05:42:02.841Z,30.05
2023-03-07T05:44:29.594Z,28.58
2023-03-07T05:46:56.542Z,30.70
2023-03-07T05:49:25.004Z,29.13
2023-03-07T05:51:51.963Z,30.63
2023-03-07T05:54:18.774Z,31.30
2023-03-07T05:56:45.506Z,29.60
2023-03-07T05:59:15.441Z,31.13
2023-03-07T06:01:42.895Z,30.95
2023-03-07T06:04:10.177Z,30.88
2023-03-07T06:06:37.009Z,30.48
2023-03-07T06:09:05.683Z,29.95
2023-03-07T06:11:33.430Z,30.75
2023-03-07T06:14:00.263Z,30.17
2023-03-07T06:16:27.234Z,27.95
2023-03-07T06:18:54.137Z,29.85
2023-03-07T06:21:20.912Z,30.25
2023-03-07T06:23:47.816Z,29.27
2023-03-07T06:26:15.128Z,32.08
2023-03-07T06:28:42.570Z,30.55
2023-03-07T06:31:11.718Z,30.95
2023-03-07T06:33:38.511Z,31.05
2023-03-07T06:36:07.628Z,27.45
2023-03-07T06:38:34.872Z,31.70
2023-03-07T06:41:01.667Z,30.55
2023-03-07T06:43:28.557Z,29.77
2023-03-07T06:45:55.821Z,32.50
2023-03-07T06:48:22.873Z,28.58
2023-03-07T06:53:16.784Z,30.02
2023-03-07T06:55:43.742Z,31.33
2023-03-07T07:00:37.148Z,31.50
2023-03-07T07:03:04.625Z,30.45
2023-03-07T07:05:31.541Z,29.98
2023-03-07T07:07:58.377Z,30.42
2023-03-07T07:10:25.117Z,28.08
2023-03-07T07:12:56.537Z,30.75
2023-03-07T07:15:24.383Z,29.90
2023-03-07T07:17:52.339Z,30.85
2023-03-07T07:20:19.607Z,31.83
2023-03-07T07:22:46.757Z,30.58
2023-03-07T07:25:13.610Z,31.38
2023-03-07T07:27:40.455Z,30.33
2023-03-07T07:30:08.349Z,31.25
2023-03-07T07:32:35.428Z,30.92
2023-03-07T07:35:02.488Z,31.48
2023-03-07T07:37:29.327Z,30.30
2023-03-07T07:39:56.070Z,30.75
2023-03-07T07:42:22.829Z,31.90
2023-03-07T07:44:49.603Z,59.85
2023-03-07T07:47:16.365Z,31.25
2023-03-07T07:49:43.120Z,30.35
2023-03-07T07:52:09.869Z,29.35
2023-03-07T07:54:36.650Z,29.80
2023-03-07T07:57:03.587Z,31.83
2023-03-07T08:01:58.630Z,29.80
2023-03-07T08:04:25.821Z,31.60
2023-03-07T08:06:52.552Z,32.50
2023-03-07T08:09:19.268Z,34.72
2023-03-07T08:11:46.486Z,31.52
2023-03-07T08:14:13.267Z,32.03
2023-03-07T08:16:40.072Z,32.60
2023-03-07T08:19:06.893Z,32.72
2023-03-07T08:21:33.677Z,33.42
2023-03-07T08:24:00.445Z,32.83
2023-03-07T08:26:27.779Z,34.60
2023-03-07T08:28:54.553Z,34.65
2023-03-07T08:31:24.085Z,32.75
2023-03-07T08:33:51.810Z,33.30
2023-03-07T08:36:19.270Z,36.38
2023-03-07T08:38:51.688Z,34.00
2023-03-07T08:41:20.659Z,35.10
2023-03-07T08:43:47.625Z,35.22
2023-03-07T08:48:41.721Z,37.15
2023-03-07T08:53:37.612Z,34.92
2023-03-07T08:56:12.492Z,44.50
2023-03-07T08:58:39.976Z,36.95
2023-03-07T09:01:08.477Z,36.20
2023-03-07T09:03:35.954Z,35.45
2023-03-07T09:06:03.895Z,35.95
2023-03-07T09:08:30.759Z,35.45
2023-03-07T09:13:27.886Z,34.17
2023-03-07T09:18:22.916Z,34.10
2023-03-07T09:20:49.748Z,34.83
2023-03-07T09:23:16.550Z,34.58
2023-03-07T09:25:44.471Z,32.53
2023-03-07T09:28:11.574Z,32.97
2023-03-07T09:30:38.461Z,34.55
2023-03-07T09:35:32.187Z,32.40
2023-03-07T09:37:59.121Z,33.47
2023-03-07T09:40:27.793Z,32.38
2023-03-07T09:43:22.361Z,31.33
2023-03-07T09:45:56.208Z,31.58
2023-03-07T09:48:47.971Z,29.58
2023-03-07T09:51:25.978Z,31.65
2023-03-07T09:54:04.840Z,31.45
2023-03-07T09:56:57.505Z,30.52
2023-03-07T09:59:30.342Z,30.77
2023-03-07T10:02:15.325Z,30.33
2023-03-07T10:05:10.733Z,31.35
2023-03-07T10:07:37.833Z,29.05
2023-03-07T10:10:18.909Z,30.45
2023-03-07T10:13:09.013Z,30.13
2023-03-07T10:15:45.666Z,37.70
2023-03-07T10:18:32.668Z,29.58
2023-03-07T10:21:02.272Z,30.58
2023-03-07T10:23:42.044Z,30.77
2023-03-07T10:26:15.668Z,31.50
2023-03-07T10:28:45.751Z,31.30
2023-03-07T10:31:25.859Z,29.20
2023-03-07T10:33:53.786Z,29.92
2023-03-07T10:36:33.516Z,27.48
2023-03-07T10:39:23.038Z,28.88
2023-03-07T10:41:49.895Z,26.40
2023-03-07T10:46:55.536Z,28.20
2023-03-07T10:49:33.135Z,27.08
2023-03-07T10:52:00.683Z,26.23
2023-03-07T10:54:31.090Z,26.42
2023-03-07T10:57:11.094Z,26.08
2023-03-07T10:59:40.498Z,25.98
2023-03-07T11:02:31.530Z,26.15
2023-03-07T11:04:58.992Z,26.27
2023-03-07T11:07:36.305Z,23.83
2023-03-07T11:10:31.119Z,24.80
2023-03-07T11:12:58.365Z,24.05
2023-03-07T11:15:27.442Z,21.38
2023-03-07T11:17:54.291Z,20.58
2023-03-07T11:23:11.551Z,20.30
2023-03-07T11:25:38.425Z,20.88
2023-03-07T11:28:33.494Z,23.02
2023-03-07T11:31:03.166Z,26.35
2023-03-07T11:33:58.540Z,22.00
2023-03-07T11:36:33.090Z,20.77
2023-03-07T11:39:16.316Z,19.35
2023-03-07T11:41:47.872Z,18.77
2023-03-07T11:44:23.388Z,19.15
2023-03-07T11:47:11.825Z,19.30
2023-03-07T11:49:57.055Z,18.05
2023-03-07T11:53:00.808Z,18.23
2023-03-07T11:55:27.569Z,18.23
2023-03-07T12:00:42.093Z,18.15
2023-03-07T12:03:36.080Z,18.63
2023-03-07T12:06:26.969Z,16.35
2023-03-07T12:09:30.103Z,16.13
2023-03-07T12:12:16.313Z,13.90
2023-03-07T12:14:52.103Z,14.68
2023-03-07T12:17:49.372Z,13.13
2023-03-07T12:20:33.657Z,12.93
2023-03-07T12:23:36.155Z,12.95
2023-03-07T12:26:24.099Z,11.30
2023-03-07T12:28:58.963Z,12.25
2023-03-07T12:31:36.135Z,11.82
2023-03-07T12:34:36.752Z,12.05
2023-03-07T12:37:07.912Z,12.80
2023-03-07T12:39:46.903Z,13.45
2023-03-07T12:42:16.818Z,14.35
2023-03-07T12:44:43.524Z,14.50
2023-03-07T12:50:12.002Z,10.23
2023-03-07T12:52:42.438Z,11.20
2023-03-07T12:55:31.093Z,13.98
2023-03-07T12:58:40.027Z,13.75
2023-03-07T13:01:28.502Z,14.18
2023-03-07T13:04:05.573Z,13.00
2023-03-07T13:06:33.500Z,12.15
2023-03-07T13:09:03.959Z,11.02
2023-03-07T13:11:33.935Z,12.65
2023-03-07T13:14:30.779Z,11.73
2023-03-07T13:16:57.602Z,10.70
2023-03-07T13:19:36.791Z,10.65
2023-03-07T13:22:24.585Z,11.05
2023-03-07T13:24:52.503Z,10.15
2023-03-07T13:27:45.501Z,10.48
2023-03-07T13:30:12.446Z,9.65
2023-03-07T13:32:51.148Z,9.32
2023-03-07T13:35:46.373Z,9.75
2023-03-07T13:38:33.564Z,9.93
2023-03-07T13:41:08.901Z,9.70
2023-03-07T13:43:59.791Z,9.65
2023-03-07T13:46:38.647Z,8.80
2023-03-07T13:49:05.485Z,8.93
2023-03-07T13:51:32.291Z,8.77
2023-03-07T13:54:12.779Z,9.02
2023-03-07T13:56:43.198Z,8.63
2023-03-07T13:59:09.966Z,8.85
2023-03-07T14:01:58.600Z,8.27
2023-03-07T14:04:54.191Z,8.70
2023-03-07T14:07:36.855Z,8.55
2023-03-07T14:10:22.507Z,7.78
2023-03-07T14:13:08.225Z,7.80
2023-03-07T14:15:48.266Z,8.15
2023-03-07T14:18:18.088Z,8.68
2023-03-07T14:21:09.088Z,8.73
2023-03-07T14:23:47.287Z,9.30
2023-03-07T14:26:29.212Z,8.65
2023-03-07T14:29:04.250Z,8.93
2023-03-07T14:31:38.200Z,8.25
2023-03-07T14:34:31.624Z,9.05
2023-03-07T14:37:12.010Z,8.68
2023-03-07T14:39:41.567Z,7.85
2023-03-07T14:42:20.369Z,8.38
2023-03-07T14:45:11.663Z,8.45
2023-03-07T14:47:44.090Z,9.52
2023-03-07T14:50:25.145Z,9.30
2023-03-07T14:52:57.885Z,9.55
2023-03-07T14:55:35.789Z,9.30
2023-03-07T14:58:02.617Z,8.70
2023-03-07T15:00:30.336Z,8.45
2023-03-07T15:03:08.436Z,8.85
2023-03-07T15:05:51.239Z,8.70
2023-03-07T15:08:22.327Z,8.02
2023-03-07T15:10:57.867Z,8.93
2023-03-07T15:13:36.844Z,8.55
2023-03-07T15:16:09.023Z,9.77
2023-03-07T15:18:40.608Z,8.85
2023-03-07T15:21:12.917Z,9.02
2023-03-07T15:23:40.194Z,9.65
2023-03-07T15:26:21.109Z,8.70
2023-03-07T15:28:48.981Z,9.52
2023-03-07T15:31:15.919Z,9.30
2023-03-07T15:33:42.781Z,9.35
2023-03-07T15:36:12.668Z,8.93
2023-03-07T15:38:46.061Z,8.90
2023-03-07T15:41:30.598Z,9.60
2023-03-07T15:44:12.577Z,9.10
2023-03-07T15:46:44.904Z,9.88
2023-03-07T15:49:25.873Z,9.95
2023-03-07T15:51:59.023Z,11.05
2023-03-07T15:54:35.314Z,10.05
2023-03-07T15:57:18.088Z,9.43
2023-03-07T15:59:54.235Z,9.43
2023-03-07T16:02:33.113Z,10.38
2023-03-07T16:05:04.839Z,9.93
2023-03-07T16:07:33.978Z,9.05
2023-03-07T16:10:00.862Z,8.90
2023-03-07T16:12:30.816Z,9.73
2023-03-07T16:15:01.661Z,9.23
2023-03-07T16:17:37.290Z,9.80
2023-03-07T16:20:05.100Z,10.23
2023-03-07T16:22:32.093Z,9.85
2023-03-07T16:24:58.876Z,9.05
2023-03-07T16:27:25.833Z,9.13
2023-03-07T16:29:53.905Z,8.98
2023-03-07T16:32:22.790Z,9.45
2023-03-07T16:34:50.279Z,9.25
2023-03-07T16:37:17.411Z,9.55
2023-03-07T16:39:44.382Z,8.77
2023-03-07T16:42:20.436Z,8.98
2023-03-07T16:44:47.366Z,8.32
2023-03-07T16:47:16.633Z,7.85
2023-03-07T16:49:43.931Z,8.10
2023-03-07T16:52:14.862Z,5.70
2023-03-07T16:54:42.070Z,5.28
2023-03-07T16:57:15.820Z,5.30
2023-03-07T16:59:50.083Z,4.30
2023-03-07T17:02:20.897Z,4.03
2023-03-07T17:04:48.827Z,4.45
2023-03-07T17:07:22.033Z,3.28
2023-03-07T17:09:49.683Z,3.70
2023-03-07T17:12:17.954Z,3.45
2023-03-07T17:14:44.999Z,3.22
2023-03-07T17:17:19.618Z,3.45
2023-03-07T17:19:49.596Z,3.63
2023-03-07T17:22:17.449Z,3.35
2023-03-07T17:24:45.013Z,3.85
2023-03-07T17:29:51.319Z,3.42
2023-03-07T17:32:18.907Z,3.55
2023-03-07T17:34:45.871Z,3.60
2023-03-07T17:37:13.726Z,3.53
2023-03-07T17:39:42.432Z,4.22
2023-03-07T17:42:09.836Z,4.28
2023-03-07T17:44:36.844Z,4.15
2023-03-07T17:47:03.941Z,4.45
2023-03-07T17:49:38.523Z,4.15
2023-03-07T17:52:06.238Z,3.92
2023-03-07T17:54:33.591Z,4.32
2023-03-07T17:57:01.268Z,4.57
2023-03-07T17:59:29.828Z,4.45
2023-03-07T18:01:57.931Z,4.50
2023-03-07T18:04:24.925Z,4.57
2023-03-07T18:06:51.654Z,4.20
2023-03-07T18:11:45.599Z,4.75
2023-03-07T18:14:12.786Z,5.13
2023-03-07T18:16:39.655Z,4.85
2023-03-07T18:19:08.336Z,4.78
2023-03-07T18:21:38.796Z,5.35
2023-03-07T18:24:26.835Z,4.05
2023-03-07T18:26:54.564Z,4.68
2023-03-07T18:29:21.833Z,5.28
2023-03-07T18:31:48.779Z,5.05
2023-03-07T18:34:15.822Z,5.82
2023-03-07T18:36:43.824Z,5.60
2023-03-07T18:39:11.163Z,6.20
2023-03-07T18:41:38.166Z,5.70
2023-03-07T18:44:04.993Z,5.10
2023-03-07T18:46:32.878Z,5.13
2023-03-07T18:49:00.846Z,5.32
2023-03-07T18:51:27.886Z,5.63
2023-03-07T18:53:59.848Z,4.60
2023-03-07T18:56:27.662Z,5.80
2023-03-07T18:59:01.288Z,5.10
2023-03-07T19:01:30.854Z,5.53
2023-03-07T19:04:02.082Z,5.07
2023-03-07T19:06:35.629Z,5.53
2023-03-07T19:09:08.282Z,5.30
2023-03-07T19:11:40.880Z,6.00
2023-03-07T19:14:08.035Z,6.07
2023-03-07T19:16:35.076Z,5.70
2023-03-07T19:19:02.856Z,5.80
2023-03-07T19:21:35.138Z,6.60
2023-03-07T19:24:04.538Z,6.00
2023-03-07T19:26:31.697Z,6.63
2023-03-07T19:29:04.361Z,5.85
2023-03-07T19:31:33.302Z,5.63
2023-03-07T19:34:02.866Z,6.07
2023-03-07T19:36:31.786Z,6.82
2023-03-07T19:38:59.441Z,6.55
2023-03-07T19:41:28.415Z,6.15
2023-03-07T19:43:56.812Z,6.07
2023-03-07T19:46:23.693Z,5.93
2023-03-07T19:51:24.894Z,5.70
2023-03-07T19:53:55.969Z,6.22
2023-03-07T19:56:29.327Z,6.32
2023-03-07T19:58:57.645Z,6.65
2023-03-07T20:01:25.664Z,6.15
2023-03-07T20:03:53.451Z,6.28
2023-03-07T20:06:23.765Z,6.22
2023-03-07T20:08:52.162Z,6.47
2023-03-07T20:11:30.661Z,6.68
2023-03-07T20:14:00.311Z,6.40
2023-03-07T20:16:29.493Z,6.38
2023-03-07T20:19:02.586Z,6.25
2023-03-07T20:21:30.371Z,6.80
2023-03-07T20:24:00.726Z,6.43
2023-03-07T20:26:35.553Z,6.28
2023-03-07T20:29:06.656Z,6.60
2023-03-07T20:31:34.164Z,6.97
2023-03-07T20:34:01.274Z,6.35
2023-03-07T20:36:35.598Z,6.15
2023-03-07T20:39:07.748Z,7.03
2023-03-07T20:41:34.663Z,6.75
2023-03-07T20:46:31.256Z,6.78
2023-03-07T20:49:00.129Z,7.15
2023-03-07T20:51:30.276Z,7.53
2023-03-07T20:53:59.895Z,6.57
2023-03-07T20:56:28.983Z,6.70
2023-03-07T20:58:56.614Z,7.95
2023-03-07T21:01:25.090Z,7.07
2023-03-07T21:03:52.581Z,7.35
2023-03-07T21:06:19.460Z,7.20
2023-03-07T21:08:50.077Z,7.70
2023-03-07T21:11:18.618Z,7.38
2023-03-07T21:13:47.405Z,7.40
2023-03-07T21:16:17.529Z,6.97
2023-03-07T21:18:44.993Z,7.57
2023-03-07T21:21:14.346Z,7.63
2023-03-07T21:23:41.328Z,7.50
2023-03-07T21:26:14.312Z,6.70
2023-03-07T21:28:41.212Z,7.18
2023-03-07T21:33:43.486Z,8.98
2023-03-07T21:36:14.178Z,6.47
2023-03-07T21:38:41.715Z,7.10
2023-03-07T21:41:08.897Z,7.90
2023-03-07T21:43:36.103Z,7.88
2023-03-07T21:46:11.421Z,7.70
2023-03-07T21:48:38.311Z,7.15
2023-03-07T21:53:33.001Z,6.90
2023-03-07T21:56:02.760Z,7.35
2023-03-07T21:58:30.558Z,6.30
2023-03-07T22:00:57.826Z,7.00
2023-03-07T22:03:28.131Z,7.05
2023-03-07T22:05:57.210Z,6.88
2023-03-07T22:08:24.357Z,6.50
2023-03-07T22:11:00.220Z,6.68
2023-03-07T22:13:28.057Z,6.68
2023-03-07T22:15:59.045Z,6.47
2023-03-07T22:18:26.738Z,7.18
2023-03-07T22:20:55.099Z,7.35
2023-03-07T22:23:23.552Z,6.95
2023-03-07T22:25:50.308Z,6.93
2023-03-07T22:30:49.593Z,6.40
2023-03-07T22:33:16.579Z,6.63
2023-03-07T22:35:43.605Z,7.05
2023-03-07T22:38:10.441Z,6.80
2023-03-07T22:43:06.982Z,7.15
2023-03-07T22:48:00.398Z,6.50
2023-03-07T22:50:27.448Z,6.75
2023-03-07T22:52:55.098Z,6.90
2023-03-07T22:55:22.242Z,7.57
2023-03-07T22:57:49.180Z,6.55
2023-03-07T23:00:16.202Z,7.05
2023-03-07T23:02:43.119Z,6.60
2023-03-07T23:05:10.358Z,7.32
2023-03-07T23:07:37.484Z,6.55
2023-03-07T23:10:04.465Z,7.22
2023-03-07T23:12:31.284Z,7.07
2023-03-07T23:17:24.813Z,6.75
2023-03-07T23:22:18.734Z,7.60
2023-03-07T23:24:45.480Z,7.05
2023-03-07T23:27:12.331Z,6.72
2023-03-07T23:32:05.914Z,6.38
2023-03-07T23:34:32.803Z,6.40
2023-03-07T23:39:26.260Z,6.72
2023-03-07T23:41:53.221Z,7.32
2023-03-07T23:46:46.646Z,6.10
2023-03-07T23:49:13.639Z,6.20
2023-03-07T23:51:40.455Z,6.78
2023-03-07T23:56:33.924Z,6.47
